createdAt,value
2018-07-30T00:00:43.761Z,10.40
2018-07-30T00:03:12.037Z,10.43
2018-07-30T00:05:40.296Z,10.30
2018-07-30T00:09:11.460Z,10.23
2018-07-30T00:11:40.311Z,10.53
2018-07-30T00:14:09.041Z,11.13
2018-07-30T00:16:37.293Z,11.00
2018-07-30T00:19:05.673Z,10.37
2018-07-30T00:21:33.989Z,10.50
2018-07-30T00:24:05.184Z,10.60
2018-07-30T00:26:33.489Z,10.33
2018-07-30T00:29:01.757Z,10.63
2018-07-30T00:31:30.049Z,10.07
2018-07-30T00:33:58.296Z,9.73
2018-07-30T00:36:26.566Z,10.17
2018-07-30T00:38:54.853Z,10.27
2018-07-30T00:41:23.148Z,10.60
2018-07-30T00:43:51.481Z,11.10
2018-07-30T00:46:19.890Z,11.40
2018-07-30T00:48:48.245Z,10.60
2018-07-30T00:51:16.529Z,10.47
2018-07-30T00:53:44.816Z,11.00
2018-07-30T00:56:13.092Z,10.10
2018-07-30T00:58:41.369Z,9.90
2018-07-30T01:01:09.646Z,10.83
2018-07-30T01:03:37.932Z,11.50
2018-07-30T01:06:06.366Z,10.30
2018-07-30T01:08:35.488Z,9.93
2018-07-30T01:11:03.915Z,10.60
2018-07-30T01:13:32.232Z,10.70
2018-07-30T01:16:00.512Z,11.30
2018-07-30T01:18:28.792Z,11.97
2018-07-30T01:20:57.064Z,11.30
2018-07-30T01:23:25.354Z,10.77
2018-07-30T01:25:53.628Z,10.43
2018-07-30T01:28:21.940Z,10.67
2018-07-30T01:30:50.244Z,10.37
2018-07-30T01:33:18.573Z,10.47
2018-07-30T01:35:46.840Z,11.33
2018-07-30T01:38:15.116Z,10.53
2018-07-30T01:40:43.402Z,11.50
2018-07-30T01:43:11.672Z,10.80
2018-07-30T01:45:39.935Z,10.60
2018-07-30T01:48:08.252Z,11.33
2018-07-30T01:50:36.572Z,11.57
2018-07-30T01:53:04.862Z,10.53
2018-07-30T01:55:33.133Z,11.30
2018-07-30T01:58:01.416Z,11.10
2018-07-30T02:00:29.696Z,11.53
2018-07-30T02:02:57.985Z,10.83
2018-07-30T02:05:26.251Z,10.53
2018-07-30T02:07:54.547Z,10.27
2018-07-30T02:10:23.160Z,11.00
2018-07-30T02:12:51.462Z,10.53
2018-07-30T02:15:19.748Z,10.57
2018-07-30T02:17:48.021Z,10.50
2018-07-30T02:20:16.320Z,10.63
2018-07-30T02:22:44.612Z,10.43
2018-07-30T02:25:12.910Z,10.97
2018-07-30T02:27:41.171Z,10.13
2018-07-30T02:30:09.799Z,10.10
2018-07-30T02:32:38.204Z,10.50
2018-07-30T02:35:07.764Z,10.93
2018-07-30T02:37:36.057Z,9.80
2018-07-30T02:40:05.342Z,10.33
2018-07-30T02:42:33.630Z,9.80
2018-07-30T02:45:02.173Z,10.40
2018-07-30T02:47:30.617Z,10.07
2018-07-30T02:49:58.917Z,9.80
2018-07-30T02:52:27.233Z,9.50
2018-07-30T02:54:55.521Z,9.47
2018-07-30T02:57:23.789Z,9.00
2018-07-30T02:59:52.066Z,10.47
2018-07-30T03:02:20.358Z,10.03
2018-07-30T03:04:48.647Z,9.90
2018-07-30T03:07:16.928Z,9.90
2018-07-30T03:09:45.292Z,10.77
2018-07-30T03:12:13.595Z,10.00
2018-07-30T03:14:41.875Z,10.23
2018-07-30T03:17:10.128Z,9.67
2018-07-30T03:19:38.428Z,10.40
2018-07-30T03:22:06.751Z,10.07
2018-07-30T03:24:35.045Z,10.23
2018-07-30T03:27:03.342Z,10.50
2018-07-30T03:29:31.706Z,10.53
2018-07-30T03:31:59.991Z,10.20
2018-07-30T03:34:28.285Z,9.47
2018-07-30T03:36:56.609Z,9.67
2018-07-30T03:39:25.082Z,9.73
2018-07-30T03:41:53.359Z,9.03
2018-07-30T03:44:21.677Z,10.30
2018-07-30T03:46:50.195Z,9.97
2018-07-30T03:49:18.498Z,10.17
2018-07-30T03:51:46.768Z,10.57
2018-07-30T03:54:15.109Z,11.07
2018-07-30T03:56:43.445Z,10.27
2018-07-30T03:59:11.717Z,9.70
2018-07-30T04:01:40.091Z,9.93
2018-07-30T04:04:08.600Z,10.00
2018-07-30T04:06:36.883Z,10.10
2018-07-30T04:09:06.644Z,9.97
2018-07-30T04:11:34.922Z,10.17
2018-07-30T04:14:03.215Z,9.40
2018-07-30T04:16:35.929Z,9.70
2018-07-30T04:19:04.206Z,10.77
2018-07-30T04:21:32.497Z,9.60
2018-07-30T04:24:00.976Z,9.97
2018-07-30T04:26:30.115Z,11.13
2018-07-30T04:28:58.422Z,10.40
2018-07-30T04:31:26.682Z,10.33
2018-07-30T04:33:54.942Z,9.90
2018-07-30T04:36:23.220Z,9.20
2018-07-30T04:38:51.568Z,10.33
2018-07-30T04:41:19.841Z,9.50
2018-07-30T04:43:48.184Z,9.33
2018-07-30T04:46:16.448Z,9.73
2018-07-30T04:48:44.713Z,8.97
2018-07-30T04:51:13.008Z,9.10
2018-07-30T04:53:41.399Z,9.40
2018-07-30T04:56:09.668Z,10.03
2018-07-30T04:58:37.929Z,9.00
2018-07-30T05:01:06.227Z,9.17
2018-07-30T05:03:34.504Z,8.97
2018-07-30T05:06:02.773Z,9.23
2018-07-30T05:08:31.067Z,9.20
2018-07-30T05:10:59.386Z,8.83
2018-07-30T05:13:27.654Z,9.53
2018-07-30T05:15:56.223Z,8.63
2018-07-30T05:18:24.497Z,8.73
2018-07-30T05:20:52.769Z,8.73
2018-07-30T05:23:21.053Z,9.07
2018-07-30T05:25:49.344Z,8.73
2018-07-30T05:28:17.641Z,8.73
2018-07-30T05:30:45.917Z,8.43
2018-07-30T05:33:14.179Z,7.93
2018-07-30T05:35:42.643Z,7.83
2018-07-30T05:38:10.946Z,8.30
2018-07-30T05:40:39.254Z,8.70
2018-07-30T05:43:07.567Z,8.00
2018-07-30T05:45:35.880Z,8.13
2018-07-30T05:48:04.196Z,7.73
2018-07-30T05:50:32.447Z,7.57
2018-07-30T05:53:00.796Z,7.90
2018-07-30T05:55:29.091Z,7.73
2018-07-30T05:57:57.356Z,7.50
2018-07-30T06:00:25.736Z,7.80
2018-07-30T06:02:54.161Z,7.67
2018-07-30T06:05:22.505Z,7.50
2018-07-30T06:07:50.769Z,7.43
2018-07-30T06:10:19.295Z,7.70
2018-07-30T06:12:47.609Z,7.33
2018-07-30T06:15:15.884Z,7.30
2018-07-30T06:17:44.160Z,7.37
2018-07-30T06:20:12.485Z,7.23
2018-07-30T06:22:41.277Z,7.70
2018-07-30T06:25:09.529Z,7.63
2018-07-30T06:27:38.080Z,7.20
2018-07-30T06:30:07.406Z,6.80
2018-07-30T06:32:35.677Z,7.40
2018-07-30T06:35:04.081Z,7.57
2018-07-30T06:37:32.420Z,6.77
2018-07-30T06:40:00.676Z,6.80
2018-07-30T06:42:28.945Z,7.23
2018-07-30T06:44:57.247Z,6.60
2018-07-30T06:47:25.533Z,8.37
2018-07-30T06:49:53.857Z,6.70
2018-07-30T06:52:22.161Z,7.27
2018-07-30T06:54:50.461Z,6.60
2018-07-30T06:57:18.846Z,8.40
2018-07-30T06:59:47.104Z,6.93
2018-07-30T07:02:15.377Z,6.67
2018-07-30T07:04:43.641Z,6.63
2018-07-30T07:07:11.949Z,6.60
2018-07-30T07:09:40.257Z,6.57
2018-07-30T07:12:08.565Z,6.93
2018-07-30T07:14:36.845Z,7.10
2018-07-30T07:17:05.473Z,6.60
2018-07-30T07:19:33.754Z,7.07
2018-07-30T07:22:02.097Z,7.70
2018-07-30T07:24:30.320Z,7.40
2018-07-30T07:26:58.646Z,11.40
2018-07-30T07:29:26.900Z,7.20
2018-07-30T07:31:55.242Z,9.70
2018-07-30T07:34:23.520Z,9.07
2018-07-30T07:36:51.826Z,7.10
2018-07-30T07:39:20.106Z,7.03
2018-07-30T07:41:48.370Z,7.13
2018-07-30T07:44:16.653Z,6.83
2018-07-30T07:46:44.942Z,6.40
2018-07-30T07:49:13.514Z,6.63
2018-07-30T07:51:41.863Z,6.90
2018-07-30T07:54:10.170Z,6.20
2018-07-30T07:56:38.454Z,6.97
2018-07-30T07:59:06.720Z,6.83
2018-07-30T08:01:34.996Z,6.87
2018-07-30T08:04:03.278Z,6.03
2018-07-30T08:06:31.561Z,6.43
2018-07-30T08:09:00.059Z,6.37
2018-07-30T08:11:28.321Z,8.10
2018-07-30T08:13:56.593Z,6.87
2018-07-30T08:16:24.931Z,6.27
2018-07-30T08:18:53.139Z,6.33
2018-07-30T08:21:21.472Z,6.00
2018-07-30T08:23:49.766Z,6.27
2018-07-30T08:26:18.061Z,6.40
2018-07-30T08:28:46.361Z,6.17
2018-07-30T08:31:14.621Z,6.40
2018-07-30T08:33:42.905Z,6.53
2018-07-30T08:36:11.186Z,6.47
2018-07-30T08:38:39.576Z,6.13
2018-07-30T08:41:07.900Z,6.10
2018-07-30T08:43:36.256Z,6.03
2018-07-30T08:46:04.819Z,6.60
2018-07-30T08:48:33.177Z,6.17
2018-07-30T08:51:01.460Z,6.13
2018-07-30T08:53:29.760Z,5.90
2018-07-30T08:55:58.058Z,6.10
2018-07-30T08:58:26.339Z,5.80
2018-07-30T09:00:54.625Z,6.93
2018-07-30T09:03:22.905Z,6.40
2018-07-30T09:05:51.176Z,6.30
2018-07-30T09:08:19.450Z,5.90
2018-07-30T09:10:48.458Z,5.83
2018-07-30T09:13:16.704Z,5.90
2018-07-30T09:15:45.882Z,5.77
2018-07-30T09:18:14.789Z,5.80
2018-07-30T09:20:46.623Z,6.13
2018-07-30T09:23:15.840Z,6.13
2018-07-30T09:25:44.215Z,6.63
2018-07-30T09:28:12.609Z,6.73
2018-07-30T09:30:40.921Z,6.80
2018-07-30T09:33:09.256Z,13.63
2018-07-30T09:35:37.489Z,10.13
2018-07-30T09:38:06.600Z,7.40
2018-07-30T09:40:35.013Z,6.43
2018-07-30T09:43:03.361Z,6.03
2018-07-30T09:45:32.783Z,7.03
2018-07-30T09:48:02.572Z,6.77
2018-07-30T09:50:30.867Z,6.50
2018-07-30T09:52:59.136Z,6.70
2018-07-30T09:55:27.630Z,6.87
2018-07-30T09:57:55.918Z,6.20
2018-07-30T10:00:31.385Z,6.90
2018-07-30T10:02:59.657Z,6.50
2018-07-30T10:05:27.929Z,6.17
2018-07-30T10:07:58.255Z,6.20
2018-07-30T10:10:30.968Z,6.33
2018-07-30T10:12:59.304Z,6.10
2018-07-30T10:15:27.902Z,6.20
2018-07-30T10:17:58.700Z,6.80
2018-07-30T10:59:51.637Z,5.87
2018-07-30T11:02:21.588Z,6.10
2018-07-30T11:04:49.866Z,6.13
2018-07-30T11:07:18.319Z,6.00
2018-07-30T11:09:50.114Z,6.77
2018-07-30T11:12:19.269Z,6.33
2018-07-30T11:14:47.726Z,10.57
2018-07-30T11:17:17.547Z,6.13
2018-07-30T11:19:45.845Z,6.40
2018-07-30T11:22:19.698Z,6.37
2018-07-30T11:24:52.613Z,6.27
2018-07-30T11:27:21.154Z,6.10
2018-07-30T11:29:52.129Z,5.90
2018-07-30T11:35:04.352Z,6.50
2018-07-30T11:37:58.196Z,6.13
2018-07-30T11:40:47.422Z,6.43
2018-07-30T11:43:22.107Z,5.80
2018-07-30T11:45:55.342Z,6.50
2018-07-30T11:48:54.934Z,6.17
2018-07-30T11:51:28.796Z,6.00
2018-07-30T11:54:05.505Z,7.90
2018-07-30T11:56:42.986Z,6.17
2018-07-30T11:59:16.950Z,6.20
2018-07-30T12:04:14.664Z,6.03
2018-07-30T12:10:19.610Z,7.33
2018-07-30T12:16:20.648Z,14.63
2018-07-30T12:19:12.651Z,5.90
2018-07-30T12:21:57.996Z,6.00
2018-07-30T12:24:40.326Z,7.10
2018-07-30T12:27:09.106Z,15.10
2018-07-30T12:29:51.714Z,6.13
2018-07-30T12:32:41.362Z,5.90
2018-07-30T12:43:45.105Z,5.90
2018-07-30T12:46:25.401Z,6.20
2018-07-30T12:49:34.582Z,5.90
2018-07-30T12:55:29.114Z,6.93
2018-07-30T12:58:02.971Z,5.73
2018-07-30T13:00:49.184Z,6.50
2018-07-30T14:12:29.718Z,6.03
2018-07-30T14:15:17.993Z,5.90
2018-07-30T14:17:53.458Z,5.70
2018-07-30T14:20:45.511Z,6.77
2018-07-30T14:24:24.174Z,6.53
2018-07-30T14:27:00.409Z,6.33
2018-07-30T14:29:38.705Z,5.97
2018-07-30T14:32:14.023Z,6.47
2018-07-30T14:34:54.934Z,6.83
2018-07-30T14:37:29.394Z,6.80
2018-07-30T14:40:02.948Z,6.20
2018-07-30T14:42:42.399Z,5.90
2018-07-30T14:45:46.497Z,5.97
2018-07-30T14:48:24.476Z,6.27
2018-07-30T14:51:35.328Z,6.33
2018-07-30T14:54:31.453Z,6.50
2018-07-30T14:57:20.535Z,6.43
2018-07-30T15:02:54.083Z,6.30
2018-07-30T15:13:12.841Z,6.13
2018-07-30T15:15:41.121Z,6.40
2018-07-30T15:18:09.386Z,6.00
2018-07-30T15:20:37.680Z,5.90
2018-07-30T15:23:06.071Z,6.40
2018-07-30T15:25:34.363Z,6.10
2018-07-30T15:28:02.628Z,6.37
2018-07-30T15:30:30.921Z,6.17
2018-07-30T15:32:59.209Z,5.90
2018-07-30T15:35:27.480Z,5.70
2018-07-30T15:37:55.808Z,5.60
2018-07-30T15:40:24.105Z,6.07
2018-07-30T15:42:52.409Z,6.00
2018-07-30T15:45:20.724Z,6.27
2018-07-30T15:47:49.087Z,5.73
2018-07-30T15:50:17.396Z,5.83
2018-07-30T15:52:45.660Z,5.70
2018-07-30T15:55:14.041Z,6.10
2018-07-30T15:57:42.241Z,6.07
2018-07-30T16:00:10.660Z,6.43
2018-07-30T16:02:38.980Z,6.17
2018-07-30T16:05:07.321Z,6.57
2018-07-30T16:07:35.633Z,6.10
2018-07-30T16:10:03.948Z,6.40
2018-07-30T16:12:32.232Z,6.58
2018-07-30T16:15:00.484Z,6.45
2018-07-30T16:17:28.783Z,7.37
2018-07-30T16:19:57.041Z,6.70
2018-07-30T16:22:25.040Z,6.50
2018-07-30T16:24:53.573Z,6.30
2018-07-30T16:27:21.869Z,6.35
2018-07-30T16:29:49.858Z,6.37
2018-07-30T16:32:18.142Z,6.37
2018-07-30T16:34:46.430Z,6.30
2018-07-30T16:37:14.988Z,6.30
2018-07-30T16:39:43.297Z,6.72
2018-07-30T16:42:11.601Z,6.72
2018-07-30T16:44:39.921Z,5.75
2018-07-30T16:47:08.244Z,5.65
2018-07-30T16:49:36.475Z,6.05
2018-07-30T16:52:04.786Z,5.80
2018-07-30T16:54:33.071Z,5.78
2018-07-30T16:57:01.370Z,6.12
2018-07-30T16:59:29.668Z,6.12
2018-07-30T17:01:57.943Z,6.28
2018-07-30T17:04:25.935Z,6.03
2018-07-30T17:06:54.221Z,5.60
2018-07-30T17:09:22.509Z,6.05
2018-07-30T17:11:50.801Z,5.90
2018-07-30T17:14:19.088Z,6.05
2018-07-30T17:16:47.360Z,6.08
2018-07-30T17:19:15.665Z,6.05
2018-07-30T17:21:43.684Z,6.37
2018-07-30T17:24:11.968Z,5.90
2018-07-30T17:26:40.229Z,5.80
2018-07-30T17:29:08.512Z,5.60
2018-07-30T17:31:36.787Z,5.60
2018-07-30T17:34:05.066Z,5.58
2018-07-30T17:36:33.333Z,5.80
2018-07-30T17:39:01.686Z,6.12
2018-07-30T17:41:29.908Z,5.78
2018-07-30T17:43:58.180Z,5.62
2018-07-30T17:46:26.455Z,5.87
2018-07-30T17:48:54.723Z,6.22
2018-07-30T17:51:23.071Z,5.80
2018-07-30T17:53:51.337Z,5.72
2018-07-30T17:56:19.805Z,6.17
2018-07-30T17:58:48.121Z,5.92
2018-07-30T18:01:16.486Z,5.37
2018-07-30T18:03:44.722Z,6.08
2018-07-30T18:06:13.067Z,5.78
2018-07-30T18:08:41.334Z,5.90
2018-07-30T18:11:09.601Z,5.70
2018-07-30T18:13:37.873Z,6.20
2018-07-30T18:16:06.193Z,5.92
2018-07-30T18:18:34.461Z,6.35
2018-07-30T18:21:02.743Z,6.53
2018-07-30T18:23:31.013Z,6.07
2018-07-30T18:25:59.300Z,6.30
2018-07-30T18:28:27.623Z,6.30
2018-07-30T18:30:55.849Z,6.00
2018-07-30T18:33:24.120Z,6.43
2018-07-30T18:35:52.402Z,6.13
2018-07-30T18:38:20.845Z,6.10
2018-07-30T18:40:49.244Z,6.00
2018-07-30T18:43:17.488Z,5.87
2018-07-30T18:45:45.793Z,6.30
2018-07-30T18:48:14.129Z,6.00
2018-07-30T18:50:42.131Z,6.60
2018-07-30T18:53:10.428Z,5.83
2018-07-30T18:55:38.697Z,6.83
2018-07-30T18:58:06.984Z,6.53
2018-07-30T19:00:35.270Z,9.17
2018-07-30T19:03:03.643Z,6.70
2018-07-30T19:05:31.933Z,6.23
2018-07-30T19:08:00.226Z,6.80
2018-07-30T19:10:28.501Z,6.33
2018-07-30T19:12:56.792Z,7.20
2018-07-30T19:15:25.079Z,7.00
2018-07-30T19:17:53.080Z,6.73
2018-07-30T19:20:21.357Z,6.63
2018-07-30T19:22:49.663Z,6.60
2018-07-30T19:25:17.994Z,7.60
2018-07-30T19:27:46.253Z,7.67
2018-07-30T19:30:14.549Z,7.70
2018-07-30T19:32:42.828Z,7.60
2018-07-30T19:35:11.120Z,7.70
2018-07-30T19:37:39.405Z,7.27
2018-07-30T19:40:07.791Z,7.60
2018-07-30T19:42:36.097Z,7.60
2018-07-30T19:45:04.668Z,7.63
2018-07-30T19:47:33.052Z,6.83
2018-07-30T19:50:01.326Z,7.53
2018-07-30T19:52:29.613Z,7.40
2018-07-30T19:54:57.904Z,6.87
2018-07-30T19:57:26.280Z,8.30
2018-07-30T19:59:54.500Z,7.90
2018-07-30T20:02:22.760Z,8.37
2018-07-30T20:04:51.056Z,8.20
2018-07-30T20:07:19.428Z,8.90
2018-07-30T20:09:47.736Z,8.60
2018-07-30T20:12:16.044Z,8.70
2018-07-30T20:14:44.293Z,8.50
2018-07-30T20:17:12.560Z,8.47
2018-07-30T20:19:40.938Z,8.10
2018-07-30T20:22:09.208Z,8.10
2018-07-30T20:24:37.514Z,8.40
2018-07-30T20:27:05.825Z,8.60
2018-07-30T20:29:34.109Z,8.40
2018-07-30T20:32:02.480Z,8.23
2018-07-30T20:34:30.765Z,8.40
2018-07-30T20:36:59.063Z,8.70
2018-07-30T20:39:27.369Z,8.80
2018-07-30T20:41:55.643Z,9.00
2018-07-30T20:44:23.933Z,8.70
2018-07-30T20:46:52.253Z,8.87
2018-07-30T20:49:20.508Z,9.13
2018-07-30T20:51:48.780Z,8.90
2018-07-30T20:54:16.821Z,9.00
2018-07-30T20:56:45.101Z,8.47
2018-07-30T20:59:13.466Z,8.43
2018-07-30T21:01:41.651Z,7.77
2018-07-30T21:04:09.957Z,8.63
2018-07-30T21:06:38.280Z,8.73
2018-07-30T21:09:08.148Z,8.33
2018-07-30T21:11:36.502Z,8.63
2018-07-30T21:14:04.729Z,8.30
2018-07-30T21:16:33.192Z,8.07
2018-07-30T21:19:01.485Z,8.50
2018-07-30T21:21:29.793Z,8.10
2018-07-30T21:23:58.096Z,8.33
2018-07-30T21:26:26.092Z,7.97
2018-07-30T21:28:54.363Z,8.13
2018-07-30T21:31:22.620Z,8.80
2018-07-30T21:33:50.639Z,8.20
2018-07-30T21:36:18.913Z,7.73
2018-07-30T21:38:47.209Z,8.50
2018-07-30T21:41:15.477Z,7.73
2018-07-30T21:43:43.750Z,8.43
2018-07-30T21:46:12.014Z,8.37
2018-07-30T21:48:40.286Z,8.80
2018-07-30T21:51:08.667Z,9.00
2018-07-30T21:53:37.339Z,8.60
2018-07-30T21:56:05.957Z,9.00
2018-07-30T21:58:34.250Z,9.10
2018-07-30T22:01:02.584Z,9.53
2018-07-30T22:03:30.894Z,9.27
2018-07-30T22:06:00.140Z,9.10
2018-07-30T22:08:29.043Z,9.47
2018-07-30T22:10:57.414Z,9.10
2018-07-30T22:13:25.711Z,9.17
2018-07-30T22:15:54.024Z,9.80
2018-07-30T22:18:22.353Z,9.83
2018-07-30T22:20:50.674Z,10.10
2018-07-30T22:23:18.957Z,9.70
2018-07-30T22:25:47.240Z,10.10
2018-07-30T22:28:15.537Z,9.53
2018-07-30T22:30:43.584Z,9.90
2018-07-30T22:33:11.847Z,9.67
2018-07-30T22:35:40.159Z,9.90
2018-07-30T22:38:08.156Z,9.47
2018-07-30T22:40:36.836Z,10.83
2018-07-30T22:43:05.364Z,11.20
2018-07-30T22:45:33.650Z,10.50
2018-07-30T22:48:01.967Z,10.17
2018-07-30T22:50:30.252Z,10.70
2018-07-30T22:52:58.512Z,9.90
2018-07-30T22:55:26.528Z,9.33
2018-07-30T22:57:54.808Z,9.50
2018-07-30T23:00:23.132Z,10.20
2018-07-30T23:02:51.139Z,9.83
2018-07-30T23:05:19.423Z,10.27
2018-07-30T23:07:47.707Z,9.07
2018-07-30T23:10:16.000Z,10.20
2018-07-30T23:12:44.289Z,10.20
2018-07-30T23:15:12.581Z,9.90
2018-07-30T23:17:40.600Z,10.37
2018-07-30T23:20:08.912Z,10.53
2018-07-30T23:22:37.211Z,10.57
2018-07-30T23:25:05.706Z,10.17
2018-07-30T23:27:33.989Z,10.30
2018-07-30T23:30:02.278Z,10.07
2018-07-30T23:32:30.608Z,10.90
2018-07-30T23:34:58.930Z,9.87
2018-07-30T23:37:27.256Z,11.20
2018-07-30T23:39:55.519Z,10.00
2018-07-30T23:42:23.848Z,10.00
2018-07-30T23:44:52.126Z,10.10
2018-07-30T23:47:20.387Z,10.60
2018-07-30T23:49:48.390Z,10.20
2018-07-30T23:52:16.684Z,10.13
2018-07-30T23:54:44.952Z,10.90
2018-07-30T23:57:13.237Z,10.70
2018-07-30T23:59:41.508Z,10.17
